map of YDP home
YDP - Airport
Location
City:  Nain, Newfoundland and Labrador, Canada
Near (Alt.):Unity Bay
Name:Nain Airport
ICAO:CYDP
IATA:YDP

Details
Type:Airport (Airfield)
Use:Public/Civil
Latitude:5633'02"N (56.550556)
Longitude:6140'56"W (-61.682221)
Elevation:21 ft (6 m)
Variation:22.27W (WMM2015v2 magnetic declination)
0.28 annual change
Runways:1
Longest:1985 ft (605 m)

Time
Time Zone:UTC-3:30 (DST-2:30)
Local Time:

Weather
METAR:CYDP 041400Z 27008G17KT 15SM FEW120 SCT130 BKN220 M15/M21 A2974 RMK AC1AS3CI2 SLP072
TAF:CYDP 041341Z 0414/0424 29010G20KT P6SM SCT060 BKN120
FM041800 28012KT P6SM FEW070
RMK NXT FCST BY 042000Z

Related Locations
Nearby:
Farthest:YWKS: 11694 mi / 18820 km
Wilkins Runway (Casey), Upper Peterson Glacier, AQ

Find:

   beyond  
but within

Other Information
Maps:
NOTAMs:
Links:
Sources:

  
  • flag of Canada
  • flag of Newfoundland and Labrador
  

Sectional Chart

Flight Planning
at skyvector.com

Satellite Image

Google Maps Satellite view

 

Copyright © 2004-2019 Karl L. Swartz. All rights reserved.
The Great Circle Mapper name and logo are trademarks of the Great Circle Mapper.
All other trademarks mentioned herein belong to their respective owners.
Please see credits for attibutions and further copyright information.

  Follow gcmap on Facebook Follow gcmap on Twitter GCmap on LinkedIn

hCard Microformat

Geo Microformat